sensor_id;sensor_type;location;lat;lon;timestamp;temperature;humidity
48752;DHT22;34544;48.836;9.174;2022-09-09T00:00:28;15.20;99.90
48752;DHT22;34544;48.836;9.174;2022-09-09T00:03:18;15.30;99.90
48752;DHT22;34544;48.836;9.174;2022-09-09T00:08:20;15.20;99.90
48752;DHT22;34544;48.836;9.174;2022-09-09T00:10:54;15.20;99.90
48752;DHT22;34544;48.836;9.174;2022-09-09T00:13:34;15.20;99.90
48752;DHT22;34544;48.836;9.174;2022-09-09T00:16:19;15.30;99.90
48752;DHT22;34544;48.836;9.174;2022-09-09T00:21:26;15.40;99.90
48752;DHT22;34544;48.836;9.174;2022-09-09T00:23:56;15.50;99.90
48752;DHT22;34544;48.836;9.174;2022-09-09T00:26:41;15.70;99.90
48752;DHT22;34544;48.836;9.174;2022-09-09T00:29:22;15.90;99.90
48752;DHT22;34544;48.836;9.174;2022-09-09T00:31:55;16.00;99.90
48752;DHT22;34544;48.836;9.174;2022-09-09T00:34:24;16.20;99.90
48752;DHT22;34544;48.836;9.174;2022-09-09T00:36:53;16.30;99.90
48752;DHT22;34544;48.836;9.174;2022-09-09T00:39:41;16.40;99.90
48752;DHT22;34544;48.836;9.174;2022-09-09T00:42:20;16.50;99.90
48752;DHT22;34544;48.836;9.174;2022-09-09T00:45:02;16.60;99.90
48752;DHT22;34544;48.836;9.174;2022-09-09T00:48:09;16.60;99.90
48752;DHT22;34544;48.836;9.174;2022-09-09T00:50:53;16.70;99.90
48752;DHT22;34544;48.836;9.174;2022-09-09T00:56:33;16.80;99.90
48752;DHT22;34544;48.836;9.174;2022-09-09T00:59:24;16.90;99.90
48752;DHT22;34544;48.836;9.174;2022-09-09T01:01:53;17.10;99.90
48752;DHT22;34544;48.836;9.174;2022-09-09T01:04:29;16.90;99.90
48752;DHT22;34544;48.836;9.174;2022-09-09T01:07:07;16.90;99.90
48752;DHT22;34544;48.836;9.174;2022-09-09T01:12:38;16.90;99.90
48752;DHT22;34544;48.836;9.174;2022-09-09T01:15:12;17.00;99.90
48752;DHT22;34544;48.836;9.174;2022-09-09T01:18:10;17.00;99.90
48752;DHT22;34544;48.836;9.174;2022-09-09T01:26:41;17.00;99.90
48752;DHT22;34544;48.836;9.174;2022-09-09T01:29:16;17.00;99.90
48752;DHT22;34544;48.836;9.174;2022-09-09T01:34:43;17.00;99.90
48752;DHT22;34544;48.836;9.174;2022-09-09T01:37:11;17.00;99.90
48752;DHT22;34544;48.836;9.174;2022-09-09T01:39:40;17.00;99.90
48752;DHT22;34544;48.836;9.174;2022-09-09T01:42:13;17.00;99.90
48752;DHT22;34544;48.836;9.174;2022-09-09T01:44:40;17.00;99.90
48752;DHT22;34544;48.836;9.174;2022-09-09T01:47:07;17.00;99.90
48752;DHT22;34544;48.836;9.174;2022-09-09T01:49:34;17.00;99.90
48752;DHT22;34544;48.836;9.174;2022-09-09T01:52:08;17.00;99.90
48752;DHT22;34544;48.836;9.174;2022-09-09T01:54:37;17.00;99.90
48752;DHT22;34544;48.836;9.174;2022-09-09T01:57:21;17.00;99.90
48752;DHT22;34544;48.836;9.174;2022-09-09T02:00:12;16.90;99.90
48752;DHT22;34544;48.836;9.174;2022-09-09T02:03:00;16.90;99.90
48752;DHT22;34544;48.836;9.174;2022-09-09T02:05:43;16.80;99.90
48752;DHT22;34544;48.836;9.174;2022-09-09T02:11:13;16.70;99.90
48752;DHT22;34544;48.836;9.174;2022-09-09T02:14:01;16.60;99.90
48752;DHT22;34544;48.836;9.174;2022-09-09T02:16:32;16.50;99.90
48752;DHT22;34544;48.836;9.174;2022-09-09T02:19:12;16.30;99.90
48752;DHT22;34544;48.836;9.174;2022-09-09T02:21:56;16.20;99.90
48752;DHT22;34544;48.836;9.174;2022-09-09T02:24:23;16.10;99.90
48752;DHT22;34544;48.836;9.174;2022-09-09T02:27:03;16.00;99.90
48752;DHT22;34544;48.836;9.174;2022-09-09T02:29:38;15.90;99.90
48752;DHT22;34544;48.836;9.174;2022-09-09T02:32:10;15.80;99.90
48752;DHT22;34544;48.836;9.174;2022-09-09T02:34:40;15.80;99.90
48752;DHT22;34544;48.836;9.174;2022-09-09T02:37:08;15.80;99.90
48752;DHT22;34544;48.836;9.174;2022-09-09T02:39:35;15.80;99.90
48752;DHT22;34544;48.836;9.174;2022-09-09T02:42:04;15.90;99.90
48752;DHT22;34544;48.836;9.174;2022-09-09T02:44:31;15.80;99.90
48752;DHT22;34544;48.836;9.174;2022-09-09T02:47:06;15.90;99.90
48752;DHT22;34544;48.836;9.174;2022-09-09T02:52:26;15.90;99.90
48752;DHT22;34544;48.836;9.174;2022-09-09T02:54:58;15.80;99.90
48752;DHT22;34544;48.836;9.174;2022-09-09T02:57:27;15.80;99.90
48752;DHT22;34544;48.836;9.174;2022-09-09T02:59:59;15.80;99.90
48752;DHT22;34544;48.836;9.174;2022-09-09T03:02:26;15.70;99.90
48752;DHT22;34544;48.836;9.174;2022-09-09T03:04:57;15.70;99.90
48752;DHT22;34544;48.836;9.174;2022-09-09T03:07:23;15.70;99.90
48752;DHT22;34544;48.836;9.174;2022-09-09T03:09:50;15.70;99.90
48752;DHT22;34544;48.836;9.174;2022-09-09T03:12:17;15.60;99.90
48752;DHT22;34544;48.836;9.174;2022-09-09T03:14:43;15.50;99.90
48752;DHT22;34544;48.836;9.174;2022-09-09T03:17:11;15.40;99.90
48752;DHT22;34544;48.836;9.174;2022-09-09T03:19:44;15.40;99.90
48752;DHT22;34544;48.836;9.174;2022-09-09T03:22:10;15.30;99.90
48752;DHT22;34544;48.836;9.174;2022-09-09T03:24:40;15.30;99.90
48752;DHT22;34544;48.836;9.174;2022-09-09T03:27:06;15.20;99.90
48752;DHT22;34544;48.836;9.174;2022-09-09T03:29:34;15.30;99.90
48752;DHT22;34544;48.836;9.174;2022-09-09T03:32:02;15.40;99.90
48752;DHT22;34544;48.836;9.174;2022-09-09T03:34:28;15.50;99.90
48752;DHT22;34544;48.836;9.174;2022-09-09T03:36:56;15.50;99.90
48752;DHT22;34544;48.836;9.174;2022-09-09T03:39:22;15.50;99.90
48752;DHT22;34544;48.836;9.174;2022-09-09T03:41:47;15.40;99.90
48752;DHT22;34544;48.836;9.174;2022-09-09T03:44:14;15.50;99.90
48752;DHT22;34544;48.836;9.174;2022-09-09T03:46:41;15.40;99.90
48752;DHT22;34544;48.836;9.174;2022-09-09T03:49:08;15.40;99.90
48752;DHT22;34544;48.836;9.174;2022-09-09T03:51:34;15.40;99.90
48752;DHT22;34544;48.836;9.174;2022-09-09T03:54:01;15.40;99.90
48752;DHT22;34544;48.836;9.174;2022-09-09T03:56:30;15.40;99.90
48752;DHT22;34544;48.836;9.174;2022-09-09T03:58:57;15.40;99.90
48752;DHT22;34544;48.836;9.174;2022-09-09T04:01:26;15.30;99.90
48752;DHT22;34544;48.836;9.174;2022-09-09T04:03:52;15.30;99.90
48752;DHT22;34544;48.836;9.174;2022-09-09T04:06:18;15.30;99.90
48752;DHT22;34544;48.836;9.174;2022-09-09T04:08:46;15.30;99.90
48752;DHT22;34544;48.836;9.174;2022-09-09T04:11:15;15.30;99.90
48752;DHT22;34544;48.836;9.174;2022-09-09T04:13:42;15.40;99.90
48752;DHT22;34544;48.836;9.174;2022-09-09T04:16:12;15.40;99.90
48752;DHT22;34544;48.836;9.174;2022-09-09T04:18:42;15.50;99.90
48752;DHT22;34544;48.836;9.174;2022-09-09T04:21:09;15.60;99.90
48752;DHT22;34544;48.836;9.174;2022-09-09T04:23:36;15.60;99.90
48752;DHT22;34544;48.836;9.174;2022-09-09T04:26:02;15.70;99.90
48752;DHT22;34544;48.836;9.174;2022-09-09T04:28:32;15.70;99.90
48752;DHT22;34544;48.836;9.174;2022-09-09T04:31:09;15.70;99.90
48752;DHT22;34544;48.836;9.174;2022-09-09T04:33:37;15.70;99.90
48752;DHT22;34544;48.836;9.174;2022-09-09T04:36:04;15.70;99.90
48752;DHT22;34544;48.836;9.174;2022-09-09T04:38:30;15.70;99.90
48752;DHT22;34544;48.836;9.174;2022-09-09T04:40:55;15.70;99.90
48752;DHT22;34544;48.836;9.174;2022-09-09T04:43:22;15.70;99.90
48752;DHT22;34544;48.836;9.174;2022-09-09T04:45:50;15.70;99.90
48752;DHT22;34544;48.836;9.174;2022-09-09T04:48:21;15.70;99.90
48752;DHT22;34544;48.836;9.174;2022-09-09T04:50:59;15.70;99.90
48752;DHT22;34544;48.836;9.174;2022-09-09T04:53:25;15.70;99.90
48752;DHT22;34544;48.836;9.174;2022-09-09T04:56:03;15.70;99.90
48752;DHT22;34544;48.836;9.174;2022-09-09T04:58:30;15.60;99.90
48752;DHT22;34544;48.836;9.174;2022-09-09T05:01:12;15.60;99.90
48752;DHT22;34544;48.836;9.174;2022-09-09T05:03:40;15.60;99.90
48752;DHT22;34544;48.836;9.174;2022-09-09T05:06:10;15.50;99.90
48752;DHT22;34544;48.836;9.174;2022-09-09T05:08:37;15.50;99.90
48752;DHT22;34544;48.836;9.174;2022-09-09T05:11:12;15.50;99.90
48752;DHT22;34544;48.836;9.174;2022-09-09T05:13:38;15.50;99.90
48752;DHT22;34544;48.836;9.174;2022-09-09T05:16:03;15.50;99.90
48752;DHT22;34544;48.836;9.174;2022-09-09T05:18:29;15.50;99.90
48752;DHT22;34544;48.836;9.174;2022-09-09T05:20:59;15.50;99.90
48752;DHT22;34544;48.836;9.174;2022-09-09T05:23:26;15.50;99.90
48752;DHT22;34544;48.836;9.174;2022-09-09T05:25:56;15.60;99.90
48752;DHT22;34544;48.836;9.174;2022-09-09T05:28:24;15.60;99.90
48752;DHT22;34544;48.836;9.174;2022-09-09T05:31:05;15.60;99.90
48752;DHT22;34544;48.836;9.174;2022-09-09T05:33:34;15.80;99.90
48752;DHT22;34544;48.836;9.174;2022-09-09T05:36:06;15.80;99.90
48752;DHT22;34544;48.836;9.174;2022-09-09T05:38:32;15.90;99.90
48752;DHT22;34544;48.836;9.174;2022-09-09T05:40:59;15.90;99.90
48752;DHT22;34544;48.836;9.174;2022-09-09T05:43:26;16.00;99.90
48752;DHT22;34544;48.836;9.174;2022-09-09T05:46:07;16.10;99.90
48752;DHT22;34544;48.836;9.174;2022-09-09T05:48:35;16.10;99.90
48752;DHT22;34544;48.836;9.174;2022-09-09T05:51:05;16.20;99.90
48752;DHT22;34544;48.836;9.174;2022-09-09T05:53:34;16.20;99.90
48752;DHT22;34544;48.836;9.174;2022-09-09T05:56:02;16.30;99.90
48752;DHT22;34544;48.836;9.174;2022-09-09T05:58:34;16.30;99.90
48752;DHT22;34544;48.836;9.174;2022-09-09T06:01:05;16.40;99.90
48752;DHT22;34544;48.836;9.174;2022-09-09T06:03:31;16.40;99.90
48752;DHT22;34544;48.836;9.174;2022-09-09T06:06:02;16.50;99.90
48752;DHT22;34544;48.836;9.174;2022-09-09T06:08:32;16.50;99.90
48752;DHT22;34544;48.836;9.174;2022-09-09T06:11:03;16.60;99.90
48752;DHT22;34544;48.836;9.174;2022-09-09T06:13:30;16.70;99.90
48752;DHT22;34544;48.836;9.174;2022-09-09T06:15:57;16.70;99.90
48752;DHT22;34544;48.836;9.174;2022-09-09T06:18:24;16.90;99.90
48752;DHT22;34544;48.836;9.174;2022-09-09T06:21:00;16.90;99.90
48752;DHT22;34544;48.836;9.174;2022-09-09T06:23:33;16.90;99.90
48752;DHT22;34544;48.836;9.174;2022-09-09T06:26:21;17.00;99.90
48752;DHT22;34544;48.836;9.174;2022-09-09T06:28:50;17.10;99.90
48752;DHT22;34544;48.836;9.174;2022-09-09T06:31:21;17.20;99.90
48752;DHT22;34544;48.836;9.174;2022-09-09T06:33:50;17.20;99.90
48752;DHT22;34544;48.836;9.174;2022-09-09T06:36:21;17.30;99.90
48752;DHT22;34544;48.836;9.174;2022-09-09T06:38:48;17.30;99.90
48752;DHT22;34544;48.836;9.174;2022-09-09T06:41:17;17.30;99.90
48752;DHT22;34544;48.836;9.174;2022-09-09T06:43:45;17.30;99.90
48752;DHT22;34544;48.836;9.174;2022-09-09T06:46:17;17.40;99.90
48752;DHT22;34544;48.836;9.174;2022-09-09T06:48:45;17.50;99.90
48752;DHT22;34544;48.836;9.174;2022-09-09T06:51:19;17.60;99.90
48752;DHT22;34544;48.836;9.174;2022-09-09T06:53:47;17.70;99.90
48752;DHT22;34544;48.836;9.174;2022-09-09T06:58:47;17.90;99.90
48752;DHT22;34544;48.836;9.174;2022-09-09T07:01:23;18.10;99.90
48752;DHT22;34544;48.836;9.174;2022-09-09T07:03:51;18.20;99.90
48752;DHT22;34544;48.836;9.174;2022-09-09T07:06:20;18.20;99.90
48752;DHT22;34544;48.836;9.174;2022-09-09T07:08:51;18.30;99.90
48752;DHT22;34544;48.836;9.174;2022-09-09T07:11:18;18.40;99.90
48752;DHT22;34544;48.836;9.174;2022-09-09T07:13:44;18.50;99.90
48752;DHT22;34544;48.836;9.174;2022-09-09T07:16:13;18.60;99.90
48752;DHT22;34544;48.836;9.174;2022-09-09T07:18:41;18.70;99.90
48752;DHT22;34544;48.836;9.174;2022-09-09T07:21:08;18.90;99.90
48752;DHT22;34544;48.836;9.174;2022-09-09T07:23:34;18.90;99.90
48752;DHT22;34544;48.836;9.174;2022-09-09T07:26:08;19.00;99.90
48752;DHT22;34544;48.836;9.174;2022-09-09T07:28:35;19.10;99.90
48752;DHT22;34544;48.836;9.174;2022-09-09T07:31:02;19.30;99.90
48752;DHT22;34544;48.836;9.174;2022-09-09T07:33:30;19.50;99.90
48752;DHT22;34544;48.836;9.174;2022-09-09T07:38:30;19.60;99.90
48752;DHT22;34544;48.836;9.174;2022-09-09T07:41:04;19.70;99.90
48752;DHT22;34544;48.836;9.174;2022-09-09T07:43:31;19.90;99.90
48752;DHT22;34544;48.836;9.174;2022-09-09T07:45:59;20.20;99.90
48752;DHT22;34544;48.836;9.174;2022-09-09T07:48:27;20.40;99.90
48752;DHT22;34544;48.836;9.174;2022-09-09T07:51:06;20.50;99.90
48752;DHT22;34544;48.836;9.174;2022-09-09T07:53:33;20.70;99.90
48752;DHT22;34544;48.836;9.174;2022-09-09T07:56:08;20.70;99.90
48752;DHT22;34544;48.836;9.174;2022-09-09T07:58:36;20.70;99.90
48752;DHT22;34544;48.836;9.174;2022-09-09T08:01:09;20.90;99.90
48752;DHT22;34544;48.836;9.174;2022-09-09T08:03:35;21.10;99.90
48752;DHT22;34544;48.836;9.174;2022-09-09T08:06:03;21.30;99.90
48752;DHT22;34544;48.836;9.174;2022-09-09T08:08:30;21.60;99.90
48752;DHT22;34544;48.836;9.174;2022-09-09T08:13:35;22.50;99.90
48752;DHT22;34544;48.836;9.174;2022-09-09T08:18:35;23.00;99.90
48752;DHT22;34544;48.836;9.174;2022-09-09T08:21:26;23.10;99.90
48752;DHT22;34544;48.836;9.174;2022-09-09T08:23:58;23.30;99.90
48752;DHT22;34544;48.836;9.174;2022-09-09T08:26:35;23.60;99.90
48752;DHT22;34544;48.836;9.174;2022-09-09T08:29:03;24.00;99.90
48752;DHT22;34544;48.836;9.174;2022-09-09T08:32:02;24.40;99.90
48752;DHT22;34544;48.836;9.174;2022-09-09T08:34:28;24.80;99.90
48752;DHT22;34544;48.836;9.174;2022-09-09T08:36:57;25.00;99.90
48752;DHT22;34544;48.836;9.174;2022-09-09T08:39:30;24.80;99.90
48752;DHT22;34544;48.836;9.174;2022-09-09T08:50:28;23.40;99.90
48752;DHT22;34544;48.836;9.174;2022-09-09T08:53:16;23.20;99.90
48752;DHT22;34544;48.836;9.174;2022-09-09T08:55:54;22.90;99.90
48752;DHT22;34544;48.836;9.174;2022-09-09T08:58:33;23.30;99.90
48752;DHT22;34544;48.836;9.174;2022-09-09T09:04:06;24.00;99.90
48752;DHT22;34544;48.836;9.174;2022-09-09T09:06:51;24.30;99.90
48752;DHT22;34544;48.836;9.174;2022-09-09T09:09:29;24.60;99.70
48752;DHT22;34544;48.836;9.174;2022-09-09T09:11:59;24.40;99.60
48752;DHT22;34544;48.836;9.174;2022-09-09T09:14:31;24.50;99.40
48752;DHT22;34544;48.836;9.174;2022-09-09T09:17:14;24.80;99.30
48752;DHT22;34544;48.836;9.174;2022-09-09T09:19:42;25.10;98.60
48752;DHT22;34544;48.836;9.174;2022-09-09T09:25:37;24.30;98.30
48752;DHT22;34544;48.836;9.174;2022-09-09T09:28:10;23.70;98.90
48752;DHT22;34544;48.836;9.174;2022-09-09T09:33:36;22.80;99.90
48752;DHT22;34544;48.836;9.174;2022-09-09T09:36:09;22.50;99.90
48752;DHT22;34544;48.836;9.174;2022-09-09T09:38:37;22.30;99.90
48752;DHT22;34544;48.836;9.174;2022-09-09T09:41:04;22.00;99.90
48752;DHT22;34544;48.836;9.174;2022-09-09T09:43:35;21.80;99.90
48752;DHT22;34544;48.836;9.174;2022-09-09T09:46:17;21.60;99.90
48752;DHT22;34544;48.836;9.174;2022-09-09T09:48:59;21.80;99.90
48752;DHT22;34544;48.836;9.174;2022-09-09T09:51:27;22.30;99.90
48752;DHT22;34544;48.836;9.174;2022-09-09T09:53:54;22.80;99.20
48752;DHT22;34544;48.836;9.174;2022-09-09T09:56:29;23.60;98.90
48752;DHT22;34544;48.836;9.174;2022-09-09T09:58:55;24.10;97.70
48752;DHT22;34544;48.836;9.174;2022-09-09T10:01:31;24.60;95.80
48752;DHT22;34544;48.836;9.174;2022-09-09T10:09:28;26.00;93.60
48752;DHT22;34544;48.836;9.174;2022-09-09T10:15:07;26.20;92.90
48752;DHT22;34544;48.836;9.174;2022-09-09T10:20:58;27.10;93.20
48752;DHT22;34544;48.836;9.174;2022-09-09T10:42:34;26.60;91.30
48752;DHT22;34544;48.836;9.174;2022-09-09T10:45:18;26.50;92.00
48752;DHT22;34544;48.836;9.174;2022-09-09T10:48:09;26.80;92.10
48752;DHT22;34544;48.836;9.174;2022-09-09T10:50:53;27.40;91.50
48752;DHT22;34544;48.836;9.174;2022-09-09T10:56:16;27.90;88.40
48752;DHT22;34544;48.836;9.174;2022-09-09T10:58:50;27.40;88.80
48752;DHT22;34544;48.836;9.174;2022-09-09T11:01:27;27.10;89.80
48752;DHT22;34544;48.836;9.174;2022-09-09T11:04:00;25.90;89.10
48752;DHT22;34544;48.836;9.174;2022-09-09T11:06:38;25.70;89.90
48752;DHT22;34544;48.836;9.174;2022-09-09T11:09:33;25.20;91.10
48752;DHT22;34544;48.836;9.174;2022-09-09T11:12:02;25.00;97.60
48752;DHT22;34544;48.836;9.174;2022-09-09T11:14:47;24.40;93.80
48752;DHT22;34544;48.836;9.174;2022-09-09T11:17:24;23.80;98.90
48752;DHT22;34544;48.836;9.174;2022-09-09T11:19:52;23.20;96.30
48752;DHT22;34544;48.836;9.174;2022-09-09T11:22:39;22.70;98.10
48752;DHT22;34544;48.836;9.174;2022-09-09T11:25:36;22.10;99.10
48752;DHT22;34544;48.836;9.174;2022-09-09T11:36:11;21.20;99.90
48752;DHT22;34544;48.836;9.174;2022-09-09T11:38:45;21.10;99.90
48752;DHT22;34544;48.836;9.174;2022-09-09T11:41:13;21.00;99.90
48752;DHT22;34544;48.836;9.174;2022-09-09T11:43:43;21.10;99.90
48752;DHT22;34544;48.836;9.174;2022-09-09T11:46:10;21.30;99.90
48752;DHT22;34544;48.836;9.174;2022-09-09T11:48:42;21.30;99.90
48752;DHT22;34544;48.836;9.174;2022-09-09T11:51:24;21.40;99.90
48752;DHT22;34544;48.836;9.174;2022-09-09T11:53:58;21.30;99.90
48752;DHT22;34544;48.836;9.174;2022-09-09T11:59:19;20.90;99.90
48752;DHT22;34544;48.836;9.174;2022-09-09T12:01:50;20.80;99.90
48752;DHT22;34544;48.836;9.174;2022-09-09T12:06:56;20.90;99.90
48752;DHT22;34544;48.836;9.174;2022-09-09T12:09:24;20.80;99.90
48752;DHT22;34544;48.836;9.174;2022-09-09T12:11:51;21.00;99.90
48752;DHT22;34544;48.836;9.174;2022-09-09T12:14:36;21.10;99.90
48752;DHT22;34544;48.836;9.174;2022-09-09T12:17:30;21.40;99.90
48752;DHT22;34544;48.836;9.174;2022-09-09T12:23:05;23.10;99.60
48752;DHT22;34544;48.836;9.174;2022-09-09T12:25:49;24.20;98.00
48752;DHT22;34544;48.836;9.174;2022-09-09T12:28:37;25.30;96.10
48752;DHT22;34544;48.836;9.174;2022-09-09T12:33:54;26.30;93.20
48752;DHT22;34544;48.836;9.174;2022-09-09T12:36:29;26.80;92.80
48752;DHT22;34544;48.836;9.174;2022-09-09T12:38:58;27.50;92.70
48752;DHT22;34544;48.836;9.174;2022-09-09T12:41:35;28.00;89.70
48752;DHT22;34544;48.836;9.174;2022-09-09T12:44:09;28.30;87.70
48752;DHT22;34544;48.836;9.174;2022-09-09T12:46:41;28.40;87.00
48752;DHT22;34544;48.836;9.174;2022-09-09T12:52:23;27.70;88.80
48752;DHT22;34544;48.836;9.174;2022-09-09T12:54:50;27.90;87.90
48752;DHT22;34544;48.836;9.174;2022-09-09T12:57:19;27.50;87.10
48752;DHT22;34544;48.836;9.174;2022-09-09T12:59:47;27.50;87.70
48752;DHT22;34544;48.836;9.174;2022-09-09T13:02:26;27.50;87.60
48752;DHT22;34544;48.836;9.174;2022-09-09T13:04:53;27.80;87.30
48752;DHT22;34544;48.836;9.174;2022-09-09T13:07:20;27.60;87.40
48752;DHT22;34544;48.836;9.174;2022-09-09T13:09:48;28.30;87.20
48752;DHT22;34544;48.836;9.174;2022-09-09T13:12:21;28.70;85.90
48752;DHT22;34544;48.836;9.174;2022-09-09T13:14:54;28.70;85.50
48752;DHT22;34544;48.836;9.174;2022-09-09T13:17:26;28.10;86.20
48752;DHT22;34544;48.836;9.174;2022-09-09T13:19:54;28.10;87.30
48752;DHT22;34544;48.836;9.174;2022-09-09T13:22:35;28.20;86.60
48752;DHT22;34544;48.836;9.174;2022-09-09T13:27:41;26.90;86.50
48752;DHT22;34544;48.836;9.174;2022-09-09T13:35:59;26.40;89.60
48752;DHT22;34544;48.836;9.174;2022-09-09T13:38:28;26.40;89.80
48752;DHT22;34544;48.836;9.174;2022-09-09T13:40:55;26.60;90.40
48752;DHT22;34544;48.836;9.174;2022-09-09T13:43:24;26.90;88.90
48752;DHT22;34544;48.836;9.174;2022-09-09T13:45:55;27.30;90.20
48752;DHT22;34544;48.836;9.174;2022-09-09T13:48:22;27.60;88.70
48752;DHT22;34544;48.836;9.174;2022-09-09T13:50:59;27.20;87.30
48752;DHT22;34544;48.836;9.174;2022-09-09T13:53:26;26.70;88.50
48752;DHT22;34544;48.836;9.174;2022-09-09T13:55:53;26.20;89.40
48752;DHT22;34544;48.836;9.174;2022-09-09T13:58:19;25.80;90.10
48752;DHT22;34544;48.836;9.174;2022-09-09T14:00:45;25.60;90.30
48752;DHT22;34544;48.836;9.174;2022-09-09T14:03:11;25.60;90.50
48752;DHT22;34544;48.836;9.174;2022-09-09T14:05:37;26.10;89.10
48752;DHT22;34544;48.836;9.174;2022-09-09T14:08:07;27.00;86.60
48752;DHT22;34544;48.836;9.174;2022-09-09T14:10:33;27.60;85.10
48752;DHT22;34544;48.836;9.174;2022-09-09T14:13:03;27.90;82.90
48752;DHT22;34544;48.836;9.174;2022-09-09T14:15:28;28.50;83.10
48752;DHT22;34544;48.836;9.174;2022-09-09T14:17:54;28.80;81.20
48752;DHT22;34544;48.836;9.174;2022-09-09T14:20:20;28.80;80.90
48752;DHT22;34544;48.836;9.174;2022-09-09T14:22:46;28.50;80.40
48752;DHT22;34544;48.836;9.174;2022-09-09T14:25:12;28.70;81.70
48752;DHT22;34544;48.836;9.174;2022-09-09T14:27:41;28.60;81.30
48752;DHT22;34544;48.836;9.174;2022-09-09T14:30:08;28.10;81.10
48752;DHT22;34544;48.836;9.174;2022-09-09T14:32:34;27.60;80.70
48752;DHT22;34544;48.836;9.174;2022-09-09T14:35:00;27.50;82.40
48752;DHT22;34544;48.836;9.174;2022-09-09T14:37:27;27.40;82.40
48752;DHT22;34544;48.836;9.174;2022-09-09T14:39:52;27.30;82.30
48752;DHT22;34544;48.836;9.174;2022-09-09T14:42:19;27.30;82.40
48752;DHT22;34544;48.836;9.174;2022-09-09T14:44:44;26.70;81.90
48752;DHT22;34544;48.836;9.174;2022-09-09T14:47:10;26.20;90.90
48752;DHT22;34544;48.836;9.174;2022-09-09T14:49:36;25.70;83.60
48752;DHT22;34544;48.836;9.174;2022-09-09T14:52:03;26.20;84.40
48752;DHT22;34544;48.836;9.174;2022-09-09T14:54:29;26.50;82.10
48752;DHT22;34544;48.836;9.174;2022-09-09T14:56:55;26.60;81.90
48752;DHT22;34544;48.836;9.174;2022-09-09T14:59:22;26.60;82.70
48752;DHT22;34544;48.836;9.174;2022-09-09T15:01:48;26.00;83.00
48752;DHT22;34544;48.836;9.174;2022-09-09T15:04:14;26.20;84.30
48752;DHT22;34544;48.836;9.174;2022-09-09T15:06:43;26.60;83.80
48752;DHT22;34544;48.836;9.174;2022-09-09T15:09:14;26.80;83.00
48752;DHT22;34544;48.836;9.174;2022-09-09T15:11:40;27.20;82.50
48752;DHT22;34544;48.836;9.174;2022-09-09T15:14:07;27.00;81.80
48752;DHT22;34544;48.836;9.174;2022-09-09T15:16:33;26.40;81.30
48752;DHT22;34544;48.836;9.174;2022-09-09T15:19:00;25.90;82.30
48752;DHT22;34544;48.836;9.174;2022-09-09T15:21:31;25.40;84.00
48752;DHT22;34544;48.836;9.174;2022-09-09T15:23:57;24.90;84.30
48752;DHT22;34544;48.836;9.174;2022-09-09T15:26:24;24.50;85.00
48752;DHT22;34544;48.836;9.174;2022-09-09T15:28:50;24.30;85.80
48752;DHT22;34544;48.836;9.174;2022-09-09T15:31:24;23.80;96.20
48752;DHT22;34544;48.836;9.174;2022-09-09T15:33:56;23.70;87.50
48752;DHT22;34544;48.836;9.174;2022-09-09T15:36:29;23.60;88.20
48752;DHT22;34544;48.836;9.174;2022-09-09T15:38:55;23.40;88.80
48752;DHT22;34544;48.836;9.174;2022-09-09T15:41:25;23.10;89.10
48752;DHT22;34544;48.836;9.174;2022-09-09T15:43:55;23.00;89.60
48752;DHT22;34544;48.836;9.174;2022-09-09T15:46:28;23.00;90.20
48752;DHT22;34544;48.836;9.174;2022-09-09T15:48:58;23.00;90.50
48752;DHT22;34544;48.836;9.174;2022-09-09T15:51:27;22.90;90.90
48752;DHT22;34544;48.836;9.174;2022-09-09T15:53:55;22.80;90.90
48752;DHT22;34544;48.836;9.174;2022-09-09T15:56:22;22.70;91.50
48752;DHT22;34544;48.836;9.174;2022-09-09T15:58:48;22.60;91.30
48752;DHT22;34544;48.836;9.174;2022-09-09T16:01:13;22.50;91.50
48752;DHT22;34544;48.836;9.174;2022-09-09T16:03:42;22.40;91.80
48752;DHT22;34544;48.836;9.174;2022-09-09T16:06:12;22.30;92.10
48752;DHT22;34544;48.836;9.174;2022-09-09T16:08:41;22.30;92.40
48752;DHT22;34544;48.836;9.174;2022-09-09T16:11:09;22.30;92.10
48752;DHT22;34544;48.836;9.174;2022-09-09T16:13:36;22.20;92.30
48752;DHT22;34544;48.836;9.174;2022-09-09T16:16:03;22.10;92.50
48752;DHT22;34544;48.836;9.174;2022-09-09T16:18:37;22.10;92.50
48752;DHT22;34544;48.836;9.174;2022-09-09T16:21:04;22.00;92.60
48752;DHT22;34544;48.836;9.174;2022-09-09T16:23:31;22.00;92.90
48752;DHT22;34544;48.836;9.174;2022-09-09T16:25:58;21.90;93.00
48752;DHT22;34544;48.836;9.174;2022-09-09T16:28:24;21.80;92.80
48752;DHT22;34544;48.836;9.174;2022-09-09T16:30:49;21.50;92.20
48752;DHT22;34544;48.836;9.174;2022-09-09T16:33:16;21.40;92.50
48752;DHT22;34544;48.836;9.174;2022-09-09T16:35:43;21.20;92.70
48752;DHT22;34544;48.836;9.174;2022-09-09T16:38:09;20.80;93.30
48752;DHT22;34544;48.836;9.174;2022-09-09T16:40:36;20.60;93.90
48752;DHT22;34544;48.836;9.174;2022-09-09T16:43:04;20.40;94.50
48752;DHT22;34544;48.836;9.174;2022-09-09T16:45:31;20.10;95.10
48752;DHT22;34544;48.836;9.174;2022-09-09T16:47:58;20.00;95.60
48752;DHT22;34544;48.836;9.174;2022-09-09T16:50:24;19.90;95.90
48752;DHT22;34544;48.836;9.174;2022-09-09T16:52:51;19.80;96.00
48752;DHT22;34544;48.836;9.174;2022-09-09T16:55:17;19.70;96.40
48752;DHT22;34544;48.836;9.174;2022-09-09T16:57:46;19.70;97.70
48752;DHT22;34544;48.836;9.174;2022-09-09T17:00:15;19.60;98.60
48752;DHT22;34544;48.836;9.174;2022-09-09T17:02:43;19.50;99.60
48752;DHT22;34544;48.836;9.174;2022-09-09T17:05:10;19.50;99.90
48752;DHT22;34544;48.836;9.174;2022-09-09T17:07:37;19.40;99.90
48752;DHT22;34544;48.836;9.174;2022-09-09T17:10:04;19.20;99.90
48752;DHT22;34544;48.836;9.174;2022-09-09T17:12:31;19.10;99.90
48752;DHT22;34544;48.836;9.174;2022-09-09T17:14:57;18.90;99.90
48752;DHT22;34544;48.836;9.174;2022-09-09T17:17:25;18.90;99.90
48752;DHT22;34544;48.836;9.174;2022-09-09T17:19:52;18.70;99.90
48752;DHT22;34544;48.836;9.174;2022-09-09T17:22:18;18.60;99.90
48752;DHT22;34544;48.836;9.174;2022-09-09T17:24:45;18.50;99.90
48752;DHT22;34544;48.836;9.174;2022-09-09T17:27:11;18.30;99.90
48752;DHT22;34544;48.836;9.174;2022-09-09T17:29:38;18.30;99.90
48752;DHT22;34544;48.836;9.174;2022-09-09T17:32:05;18.20;99.90
48752;DHT22;34544;48.836;9.174;2022-09-09T17:34:30;18.10;99.90
48752;DHT22;34544;48.836;9.174;2022-09-09T17:36:56;18.00;99.90
48752;DHT22;34544;48.836;9.174;2022-09-09T17:39:22;18.00;99.90
48752;DHT22;34544;48.836;9.174;2022-09-09T17:41:48;18.00;99.90
48752;DHT22;34544;48.836;9.174;2022-09-09T17:44:14;17.90;99.90
48752;DHT22;34544;48.836;9.174;2022-09-09T17:46:42;17.80;99.90
48752;DHT22;34544;48.836;9.174;2022-09-09T17:49:11;17.70;99.90
48752;DHT22;34544;48.836;9.174;2022-09-09T17:51:37;17.70;99.90